Time,TemperatureF,DewpointF,PressureIn,WindDirection,WindDirectionDegrees,WindSpeedMPH,WindSpeedGustMPH,Humidity,HourlyPrecipIn,Conditions,Clouds,dailyrainin,SoftwareType,DateUTC
2013-09-25 00:14:00,62.4,58.2,29.86,WNW,300,0.0,0.0,86,0.00,OVC,,0.00,WeatherDisplay:10.37,2013-09-25 04:14:00,
2013-09-25 00:29:00,62.3,58.0,29.85,WNW,300,0.0,0.0,86,0.00,OVC,,0.00,WeatherDisplay:10.37,2013-09-25 04:29:00,
2013-09-25 00:44:00,62.1,57.9,29.85,WNW,300,0.0,0.0,86,0.00,OVC,,0.00,WeatherDisplay:10.37,2013-09-25 04:44:00,
2013-09-25 00:59:00,61.9,57.7,29.85,WNW,300,0.0,0.0,86,0.00,OVC,,0.00,WeatherDisplay:10.37,2013-09-25 04:59:00,
2013-09-25 01:14:00,61.8,57.6,29.85,WNW,300,0.0,0.0,86,0.00,OVC,,0.00,WeatherDisplay:10.37,2013-09-25 05:14:00,
2013-09-25 01:29:00,61.6,57.4,29.84,WNW,300,0.0,0.0,86,0.00,OVC,,0.00,WeatherDisplay:10.37,2013-09-25 05:29:00,
2013-09-25 01:44:00,61.5,57.3,29.84,WNW,300,0.0,0.0,86,0.00,OVC,,0.00,WeatherDisplay:10.37,2013-09-25 05:44:00,
2013-09-25 01:59:00,61.4,57.5,29.84,WNW,300,0.0,0.0,87,0.00,OVC,,0.00,WeatherDisplay:10.37,2013-09-25 05:59:00,
2013-09-25 02:14:00,61.3,57.4,29.84,WNW,300,0.0,0.0,87,0.00,OVC,,0.00,WeatherDisplay:10.37,2013-09-25 06:14:00,
2013-09-25 02:29:00,61.2,57.3,29.83,WNW,300,0.0,0.0,87,0.00,OVC,,0.00,WeatherDisplay:10.37,2013-09-25 06:29:00,
2013-09-25 02:44:00,61.2,57.3,29.83,WNW,300,0.0,0.0,87,0.00,OVC,,0.00,WeatherDisplay:10.37,2013-09-25 06:44:00,
2013-09-25 03:00:00,61.2,57.3,29.82,WNW,300,0.0,0.0,87,0.00,OVC,,0.00,WeatherDisplay:10.37,2013-09-25 07:00:00,
2013-09-25 03:15:00,61.1,57.2,29.82,WNW,300,0.0,0.0,87,0.00,OVC,,0.00,WeatherDisplay:10.37,2013-09-25 07:15:00,
2013-09-25 03:30:00,61.0,57.1,29.82,WNW,300,0.0,0.0,87,0.00,OVC,,0.00,WeatherDisplay:10.37,2013-09-25 07:30:00,
2013-09-25 03:45:00,61.0,57.1,29.80,WNW,300,0.0,0.0,87,0.00,OVC,,0.00,WeatherDisplay:10.37,2013-09-25 07:45:00,
2013-09-25 04:00:00,60.8,57.2,29.80,WNW,300,0.0,0.0,88,0.00,OVC,,0.00,WeatherDisplay:10.37,2013-09-25 08:00:00,
2013-09-25 04:15:00,60.7,57.1,29.80,WNW,300,0.0,0.0,88,0.00,OVC,,0.00,WeatherDisplay:10.37,2013-09-25 08:15:00,
2013-09-25 04:45:00,60.5,56.9,29.80,WNW,300,0.0,0.0,88,0.00,OVC,,0.00,WeatherDisplay:10.37,2013-09-25 08:45:00,
2013-09-25 05:00:00,60.4,56.8,29.80,WNW,301,0.0,0.0,88,0.00,OVC,,0.00,WeatherDisplay:10.37,2013-09-25 09:00:00,
2013-09-25 05:15:00,60.4,56.8,29.79,NW,315,0.0,0.0,88,0.00,OVC,,0.00,WeatherDisplay:10.37,2013-09-25 09:15:00,
2013-09-25 05:30:00,60.1,56.5,29.79,NE,42,0.0,1.0,88,0.00,OVC,,0.00,WeatherDisplay:10.37,2013-09-25 09:30:00,
2013-09-25 05:45:00,60.0,56.4,29.79,NE,42,0.0,0.0,88,0.00,OVC,,0.00,WeatherDisplay:10.37,2013-09-25 09:45:00,
2013-09-25 06:00:00,59.9,56.3,29.80,NE,41,0.0,0.0,88,0.00,OVC,,0.00,WeatherDisplay:10.37,2013-09-25 10:00:00,
2013-09-25 06:15:00,59.9,56.3,29.80,NE,42,0.0,0.0,88,0.00,OVC,,0.00,WeatherDisplay:10.37,2013-09-25 10:15:00,
2013-09-25 06:30:00,59.9,56.3,29.79,NE,42,0.0,0.0,88,0.00,OVC,,0.00,WeatherDisplay:10.37,2013-09-25 10:30:00,
2013-09-25 06:45:00,59.8,56.2,29.79,NE,42,0.0,0.0,88,0.00,-RA,,0.00,WeatherDisplay:10.37,2013-09-25 10:45:00,
2013-09-25 07:00:00,59.7,56.5,29.80,NE,42,0.0,0.0,89,0.00,-RA,,0.00,WeatherDisplay:10.37,2013-09-25 11:00:00,
2013-09-25 07:15:00,59.7,56.5,29.80,NE,42,0.0,0.0,89,0.00,-RA,,0.00,WeatherDisplay:10.37,2013-09-25 11:15:00,
2013-09-25 07:30:00,59.6,56.4,29.80,NE,42,0.0,0.0,89,0.00,-RA,,0.00,WeatherDisplay:10.37,2013-09-25 11:30:00,
2013-09-25 07:45:00,59.6,56.4,29.81,NE,42,0.0,0.0,89,0.00, +RA,,0.00,WeatherDisplay:10.37,2013-09-25 11:45:00,
2013-09-25 08:00:00,59.6,56.4,29.81,NE,42,0.0,0.0,89,0.00, +RA,,0.00,WeatherDisplay:10.37,2013-09-25 12:00:00,
2013-09-25 08:15:00,59.7,56.4,29.81,NE,42,0.0,0.0,89,0.00, +RA,,0.00,WeatherDisplay:10.37,2013-09-25 12:15:00,
2013-09-25 08:30:00,59.8,56.6,29.81,NE,42,0.0,0.0,89,0.00, +RA,,0.00,WeatherDisplay:10.37,2013-09-25 12:30:00,
2013-09-25 08:45:00,60.0,56.7,29.81,NE,38,0.0,0.0,89,0.00, +RA,,0.00,WeatherDisplay:10.37,2013-09-25 12:45:00,
2013-09-25 09:00:00,60.1,56.9,29.81,WNW,290,0.0,4.0,89,0.00, +RA,,0.00,WeatherDisplay:10.37,2013-09-25 13:00:00,
2013-09-25 09:15:00,60.2,56.9,29.81,West,270,0.0,1.0,89,0.00, +RA,,0.00,WeatherDisplay:10.37,2013-09-25 13:15:00,
2013-09-25 09:30:00,60.3,57.0,29.81,West,269,0.0,1.0,89,0.00, +RA,,0.00,WeatherDisplay:10.37,2013-09-25 13:30:00,
2013-09-25 09:45:00,60.4,57.1,29.81,West,273,0.0,2.0,89,0.00,OVC,,0.00,WeatherDisplay:10.37,2013-09-25 13:45:00,
2013-09-25 10:00:00,60.3,57.0,29.82,West,274,0.0,0.0,89,0.00,OVC,,0.00,WeatherDisplay:10.37,2013-09-25 14:00:00,
2013-09-25 10:15:00,60.1,56.8,29.82,West,270,0.0,6.0,89,0.00,OVC,,0.00,WeatherDisplay:10.37,2013-09-25 14:15:00,
2013-09-25 10:30:00,60.2,56.9,29.82,West,272,0.0,2.0,89,0.00,OVC,,0.00,WeatherDisplay:10.37,2013-09-25 14:30:00,
2013-09-25 10:45:00,60.2,56.9,29.82,West,272,0.0,3.0,89,0.00,-RA,,0.00,WeatherDisplay:10.37,2013-09-25 14:45:00,
2013-09-25 11:00:00,60.4,57.1,29.82,West,275,0.0,4.0,89,0.00,-RA,,0.00,WeatherDisplay:10.37,2013-09-25 15:00:00,
2013-09-25 11:15:00,60.7,57.4,29.82,West,276,0.0,3.0,89,0.00,-RA,,0.00,WeatherDisplay:10.37,2013-09-25 15:15:00,
2013-09-25 11:30:00,61.4,58.1,29.82,West,275,0.0,4.0,89,0.00,-RA,,0.00,WeatherDisplay:10.37,2013-09-25 15:30:00,
2013-09-25 11:45:00,61.3,57.7,29.81,West,277,0.0,3.0,88,0.00,-RA,,0.00,WeatherDisplay:10.37,2013-09-25 15:45:00,
2013-09-25 12:00:00,61.7,58.1,29.82,West,277,0.0,0.0,88,0.00,-RA,,0.00,WeatherDisplay:10.37,2013-09-25 16:00:00,
2013-09-25 12:15:00,61.4,57.8,29.82,West,277,0.0,0.0,88,0.00,-RA,,0.00,WeatherDisplay:10.37,2013-09-25 16:15:00,
2013-09-25 12:30:00,61.5,58.0,29.82,West,277,0.0,2.0,88,0.00,-RA,,0.00,WeatherDisplay:10.37,2013-09-25 16:30:00,
2013-09-25 12:45:00,62.0,58.1,29.81,West,277,0.0,0.0,87,0.00,OVC,,0.00,WeatherDisplay:10.37,2013-09-25 16:45:00,
2013-09-25 13:00:00,62.4,58.5,29.80,West,277,0.0,0.0,87,0.00,OVC,,0.00,WeatherDisplay:10.37,2013-09-25 17:00:00,
2013-09-25 13:15:00,62.9,58.9,29.80,West,277,0.0,1.0,87,0.00,OVC,,0.00,WeatherDisplay:10.37,2013-09-25 17:15:00,
2013-09-25 13:30:00,62.9,59.0,29.80,WNW,285,0.0,1.0,87,0.00,OVC,,0.00,WeatherDisplay:10.37,2013-09-25 17:30:00,
2013-09-25 13:45:00,62.8,58.9,29.80,WNW,285,0.0,1.0,87,0.00,-RA,,0.00,WeatherDisplay:10.37,2013-09-25 17:45:00,
2013-09-25 14:15:00,62.6,58.7,29.79,WNW,285,0.0,0.0,87,0.00,-RA,,0.00,WeatherDisplay:10.37,2013-09-25 18:15:00,
2013-09-25 14:30:00,62.7,58.8,29.79,WNW,285,0.0,0.0,87,0.00,-RA,,0.00,WeatherDisplay:10.37,2013-09-25 18:30:00,
2013-09-25 14:45:00,63.2,59.2,29.78,WNW,285,0.0,1.0,87,0.00,-RA,,0.00,WeatherDisplay:10.37,2013-09-25 18:45:00,
2013-09-25 15:00:00,63.1,58.8,29.78,WNW,285,0.0,1.0,86,0.00,-RA,,0.00,WeatherDisplay:10.37,2013-09-25 19:00:00,
2013-09-25 15:15:00,63.2,58.9,29.78,West,275,0.0,2.0,86,0.00,-RA,,0.00,WeatherDisplay:10.37,2013-09-25 19:15:00,
2013-09-25 15:30:00,63.5,59.2,29.77,WNW,286,0.0,1.0,86,0.00,-RA,,0.00,WeatherDisplay:10.37,2013-09-25 19:30:00,
2013-09-25 15:45:00,63.3,59.0,29.77,WNW,284,0.0,2.0,86,0.00,OVC,,0.00,WeatherDisplay:10.37,2013-09-25 19:45:00,
2013-09-25 16:00:00,63.3,59.1,29.76,WNW,284,0.0,0.0,86,0.00,OVC,,0.00,WeatherDisplay:10.37,2013-09-25 20:00:00,
2013-09-25 16:15:00,63.6,59.3,29.77,WNW,284,0.0,0.0,86,0.00,OVC,,0.00,WeatherDisplay:10.37,2013-09-25 20:15:00,
2013-09-25 16:30:00,63.5,59.3,29.77,WNW,286,0.0,0.0,86,0.00,OVC,,0.00,WeatherDisplay:10.37,2013-09-25 20:30:00,
2013-09-25 16:45:00,64.0,59.7,29.77,WNW,291,0.0,1.0,86,0.00,-RA,,0.00,WeatherDisplay:10.37,2013-09-25 20:45:00,
2013-09-25 17:00:00,63.9,59.6,29.77,WNW,292,0.0,0.0,86,0.00,-RA,,0.00,WeatherDisplay:10.37,2013-09-25 21:00:00,
2013-09-25 17:15:00,63.8,59.2,29.77,WNW,296,0.0,0.0,85,0.00,-RA,,0.00,WeatherDisplay:10.37,2013-09-25 21:15:00,
2013-09-25 17:30:00,63.7,59.1,29.77,WNW,298,0.0,0.0,85,0.00,-RA,,0.00,WeatherDisplay:10.37,2013-09-25 21:30:00,
2013-09-25 17:45:00,63.6,59.0,29.77,WNW,298,0.0,0.0,85,0.00,OVC,,0.00,WeatherDisplay:10.37,2013-09-25 21:45:00,
2013-09-25 18:00:00,63.5,59.2,29.78,WNW,298,0.0,0.0,86,0.00,OVC,,0.00,WeatherDisplay:10.37,2013-09-25 22:00:00,
2013-09-25 18:15:00,63.3,59.1,29.78,WNW,298,0.0,0.0,86,0.00,OVC,,0.00,WeatherDisplay:10.37,2013-09-25 22:15:00,
2013-09-25 18:30:00,63.1,58.8,29.78,WNW,298,0.0,0.0,86,0.00,OVC,,0.00,WeatherDisplay:10.37,2013-09-25 22:30:00,
2013-09-25 18:45:00,62.8,58.5,29.78,WNW,298,0.0,0.0,86,0.00,OVC,,0.00,WeatherDisplay:10.37,2013-09-25 22:45:00,
2013-09-25 19:00:00,62.2,57.9,29.78,WNW,298,0.0,0.0,86,0.00,OVC,,0.00,WeatherDisplay:10.37,2013-09-25 23:00:00,
2013-09-25 19:15:00,61.8,57.6,29.79,WNW,298,0.0,0.0,86,0.00,OVC,,0.00,WeatherDisplay:10.37,2013-09-25 23:15:00,
2013-09-25 19:30:00,61.7,57.5,29.79,WNW,298,0.0,0.0,86,0.00,OVC,,0.00,WeatherDisplay:10.37,2013-09-25 23:30:00,
2013-09-25 19:45:00,61.4,57.2,29.79,NW,318,0.0,1.0,86,0.00,OVC,,0.00,WeatherDisplay:10.37,2013-09-25 23:45:00,
2013-09-25 20:00:00,61.1,56.9,29.79,NW,319,0.0,0.0,86,0.00,OVC,,0.00,WeatherDisplay:10.37,2013-09-26 00:00:00,
2013-09-25 20:15:00,61.0,56.7,29.79,NW,319,0.0,0.0,86,0.00,OVC,,0.00,WeatherDisplay:10.37,2013-09-26 00:15:00,
2013-09-25 20:30:00,60.9,56.7,29.80,NW,319,0.0,0.0,86,0.00,OVC,,0.00,WeatherDisplay:10.37,2013-09-26 00:30:00,
2013-09-25 20:45:00,60.8,56.6,29.80,NW,318,0.0,1.0,86,0.00,OVC,,0.00,WeatherDisplay:10.37,2013-09-26 00:45:00,
2013-09-25 21:00:00,60.6,56.7,29.80,NW,317,0.0,1.0,87,0.00,OVC,,0.00,WeatherDisplay:10.37,2013-09-26 01:00:00,
2013-09-25 21:15:00,60.5,56.6,29.81,NW,317,0.0,1.0,87,0.00,OVC,,0.00,WeatherDisplay:10.37,2013-09-26 01:15:00,
2013-09-25 21:30:00,60.4,56.2,29.81,NNW,337,0.0,2.0,86,0.00,OVC,,0.00,WeatherDisplay:10.37,2013-09-26 01:30:00,
2013-09-25 21:45:00,60.2,56.0,29.81,WNW,292,0.0,2.0,86,0.00,OVC,,0.00,WeatherDisplay:10.37,2013-09-26 01:45:00,
2013-09-25 22:00:00,60.1,56.2,29.81,WNW,292,0.0,1.0,87,0.00,OVC,,0.00,WeatherDisplay:10.37,2013-09-26 02:00:00,
2013-09-25 22:15:00,59.9,56.0,29.81,WNW,292,0.0,0.0,87,0.00,OVC,,0.00,WeatherDisplay:10.37,2013-09-26 02:15:00,
2013-09-25 22:30:00,59.7,55.8,29.82,WNW,291,0.0,1.0,87,0.00,OVC,,0.00,WeatherDisplay:10.37,2013-09-26 02:30:00,
2013-09-25 22:45:00,59.6,55.7,29.82,West,275,0.0,5.0,87,0.00,OVC,,0.00,WeatherDisplay:10.37,2013-09-26 02:45:00,
2013-09-25 23:00:00,59.5,55.6,29.82,West,275,0.0,0.0,87,0.00,OVC,,0.00,WeatherDisplay:10.37,2013-09-26 03:00:00,
2013-09-25 23:15:00,59.4,55.5,29.82,West,279,0.0,0.0,87,0.00,OVC,,0.00,WeatherDisplay:10.37,2013-09-26 03:15:00,
2013-09-25 23:30:00,59.3,55.4,29.82,West,279,0.0,0.0,87,0.00,OVC,,0.00,WeatherDisplay:10.37,2013-09-26 03:30:00,
2013-09-25 23:45:00,59.2,55.3,29.82,West,279,0.0,0.0,87,0.00,OVC,,0.00,WeatherDisplay:10.37,2013-09-26 03:45:00,